Time;durP1;ratioP1;P1;durP2;ratioP2;P2;SDS_P1;SDS_P2;PMS_P1;PMS_P2;Temp;Humidity;BMP_temperature;BMP_pressure;BME280_temperature;BME280_humidity;BME280_pressure;Samples;Min_cycle;Max_cycle;Signal;HPM_P1;HPM_P2
2023/03/13 00:01:51;;;;;;;44.40;23.10;;;;;;;0.17;51.36;100915.69;124574;1099;104268;-72
2023/03/13 00:04:23;;;;;;;48.00;23.30;;;;;;;0.14;51.36;100917.08;124568;1099;101910;-72
2023/03/13 00:06:54;;;;;;;43.27;22.37;;;;;;;0.10;51.46;100926.25;124580;1099;101948;-71
2023/03/13 00:09:26;;;;;;;48.83;23.33;;;;;;;0.07;51.20;100925.11;124558;1099;104386;-71
2023/03/13 00:11:57;;;;;;;47.23;22.63;;;;;;;0.05;51.33;100929.20;124599;1099;104265;-71
2023/03/13 00:14:28;;;;;;;45.27;22.13;;;;;;;0.03;51.76;100930.77;124707;1099;104232;-71
2023/03/13 00:17:01;;;;;;;48.93;23.70;;;;;;;0.03;52.09;100930.77;124557;1099;104163;-71
2023/03/13 00:19:33;;;;;;;47.97;24.03;;;;;;;0.02;52.04;100928.95;124534;1098;102033;-71
2023/03/13 00:22:04;;;;;;;50.20;23.75;;;;;;;0.01;51.84;100929.75;124529;1099;104289;-71
2023/03/13 00:24:35;;;;;;;46.13;22.60;;;;;;;-0.01;51.93;100933.09;124532;1099;104239;-71
2023/03/13 00:27:07;;;;;;;44.90;21.67;;;;;;;0.02;51.88;100934.11;124513;1099;104245;-71
2023/03/13 00:29:38;;;;;;;43.67;21.57;;;;;;;0.01;51.71;100924.59;124579;1099;104176;-72
2023/03/13 00:32:09;;;;;;;42.33;21.23;;;;;;;-0.07;52.06;100924.83;124549;1098;104352;-71
2023/03/13 00:34:41;;;;;;;40.33;21.07;;;;;;;-0.12;51.85;100931.28;124525;1099;104248;-71
2023/03/13 00:37:12;;;;;;;42.83;20.67;;;;;;;-0.16;51.91;100929.20;124592;1099;101974;-71
2023/03/13 00:39:43;;;;;;;45.83;20.93;;;;;;;-0.20;51.90;100927.16;124544;1099;104245;-71
2023/03/13 00:42:15;;;;;;;42.73;20.83;;;;;;;-0.24;52.79;100928.55;124648;1099;101900;-71
2023/03/13 00:44:46;;;;;;;41.77;20.37;;;;;;;-0.29;52.35;100934.11;124614;1098;104245;-71
2023/03/13 00:47:17;;;;;;;40.40;20.20;;;;;;;-0.30;52.48;100935.76;124537;1099;104241;-71
2023/03/13 00:49:49;;;;;;;43.73;20.43;;;;;;;-0.28;52.51;100938.47;124580;1098;104341;-71
2023/03/13 00:52:20;;;;;;;42.03;20.50;;;;;;;-0.26;52.60;100929.21;125046;1098;104194;-71
2023/03/13 00:54:51;;;;;;;43.30;20.17;;;;;;;-0.26;52.48;100935.27;124557;1099;104255;-71
2023/03/13 00:57:22;;;;;;;39.40;19.80;;;;;;;-0.28;53.19;100930.73;125527;1098;102128;-71
2023/03/13 00:59:54;;;;;;;38.80;20.10;;;;;;;-0.34;52.39;100932.78;124567;1099;102032;-71
2023/03/13 01:02:25;;;;;;;41.03;19.83;;;;;;;-0.35;53.08;100938.73;125490;1098;103716;-71
2023/03/13 01:04:57;;;;;;;40.53;19.13;;;;;;;-0.40;53.01;100934.08;124484;1099;104268;-71
2023/03/13 01:07:30;;;;;;;38.43;18.97;;;;;;;-0.39;52.74;100938.47;124602;1099;104306;-71
2023/03/13 01:10:02;;;;;;;35.60;18.13;;;;;;;-0.36;52.29;100932.66;124547;1099;104268;-71
2023/03/13 01:12:33;;;;;;;34.13;17.50;;;;;;;-0.34;53.30;100932.78;124531;1098;104242;-72
2023/03/13 01:15:05;;;;;;;36.50;17.90;;;;;;;-0.38;53.04;100929.94;124566;1099;104270;-71
2023/03/13 01:17:36;;;;;;;34.67;16.93;;;;;;;-0.45;53.37;100929.28;125849;1098;104197;-71
2023/03/13 01:20:10;;;;;;;37.60;16.87;;;;;;;-0.50;52.79;100920.25;124543;1099;104251;-71
2023/03/13 01:22:40;;;;;;;;;;;;;;;-0.55;53.04;100920.78;125929;1098;104166;-72
2023/03/13 01:25:11;;;;;;;35.93;16.93;;;;;;;-0.58;52.65;100927.32;124517;1098;103649;-71
2023/03/13 01:27:43;;;;;;;37.43;17.97;;;;;;;-0.60;53.09;100931.45;125045;1099;101932;-71
2023/03/13 01:30:15;;;;;;;37.27;18.00;;;;;;;-0.64;53.52;100930.30;124538;1099;104264;-71
2023/03/13 01:32:46;;;;;;;40.35;17.95;;;;;;;-0.63;54.05;100931.19;124573;1099;104197;-71
2023/03/13 01:35:18;;;;;;;35.13;17.43;;;;;;;-0.63;53.68;100937.23;124544;1099;104427;-71
2023/03/13 01:37:49;;;;;;;33.83;17.00;;;;;;;-0.61;53.42;100935.72;125998;1099;104047;-71
2023/03/13 01:40:21;;;;;;;39.70;19.77;;;;;;;-0.64;53.65;100937.09;124516;1099;104353;-71
2023/03/13 01:42:54;;;;;;;41.30;19.63;;;;;;;-0.67;53.82;100952.30;124527;1099;104163;-71
2023/03/13 01:45:59;;;;;;;38.93;19.63;;;;;;;-0.70;53.75;100958.11;124547;1099;104313;-71
2023/03/13 01:48:42;;;;;;;37.80;18.20;;;;;;;-0.71;54.05;100961.44;124537;1099;104261;-71
2023/03/13 01:51:18;;;;;;;38.00;19.00;;;;;;;-0.77;54.35;100971.20;124569;1099;104245;-71
2023/03/13 01:53:55;;;;;;;38.43;18.70;;;;;;;-0.81;54.20;100967.47;124555;1099;104223;-71
2023/03/13 01:56:34;;;;;;;35.00;17.30;;;;;;;-0.82;54.40;100978.53;124502;1099;104175;-71
2023/03/13 01:59:08;;;;;;;38.63;18.63;;;;;;;-0.86;54.07;100983.28;124504;1099;104261;-71
2023/03/13 02:01:41;;;;;;;36.13;18.70;;;;;;;-0.91;53.87;100990.59;124573;1099;104232;-71
2023/03/13 02:04:13;;;;;;;40.67;19.07;;;;;;;-0.96;53.94;100990.19;124112;1099;104173;-71
2023/03/13 02:06:47;;;;;;;32.93;16.67;;;;;;;-0.99;54.68;101002.80;124837;1097;104248;-71
2023/03/13 02:09:24;;;;;;;40.87;18.83;;;;;;;-0.99;53.71;101017.35;124504;1099;104175;-71
2023/03/13 02:12:01;;;;;;;33.67;17.23;;;;;;;-1.00;54.64;101013.85;124568;1099;104220;-71
2023/03/13 02:14:35;;;;;;;34.63;17.23;;;;;;;-0.99;54.24;101025.08;124479;1099;104273;-71
2023/03/13 02:17:08;;;;;;;34.53;16.40;;;;;;;-1.00;54.22;101023.27;124536;1099;103687;-71
2023/03/13 02:19:44;;;;;;;34.90;16.67;;;;;;;-1.00;55.06;101015.53;124505;1099;104325;-71
2023/03/13 02:22:24;;;;;;;34.03;16.87;;;;;;;-1.00;54.09;101019.00;124530;1099;104268;-71
2023/03/13 02:25:02;;;;;;;34.07;16.73;;;;;;;-0.96;55.05;101020.20;124461;1099;104323;-71
2023/03/13 02:27:33;;;;;;;36.25;16.85;;;;;;;-0.90;54.21;101031.06;124536;1099;104386;-71
2023/03/13 02:30:07;;;;;;;34.90;16.70;;;;;;;-0.88;54.66;101034.67;124206;1099;104195;-71
2023/03/13 02:32:39;;;;;;;35.40;16.57;;;;;;;-0.87;54.55;101040.72;125842;1098;102147;-71
2023/03/13 02:35:13;;;;;;;31.97;15.93;;;;;;;-0.92;54.63;101038.66;124436;1099;103706;-71
2023/03/13 02:37:48;;;;;;;38.07;16.63;;;;;;;-0.93;54.55;101049.72;124583;1099;102032;-71
2023/03/13 02:40:25;;;;;;;34.70;15.97;;;;;;;-0.92;54.77;101048.03;124472;1099;102489;-71
2023/03/13 02:43:00;;;;;;;33.87;16.47;;;;;;;-0.89;54.32;101049.99;124566;1099;102907;-71
2023/03/13 02:45:31;;;;;;;32.17;15.70;;;;;;;-0.89;54.72;101049.99;124597;1098;104354;-71
2023/03/13 02:48:04;;;;;;;34.77;15.53;;;;;;;-0.92;55.34;101053.19;124598;1099;104211;-71
2023/03/13 02:50:37;;;;;;;35.40;16.50;;;;;;;-0.97;55.03;101063.08;124590;1099;104197;-71
2023/03/13 02:53:09;;;;;;;33.80;16.73;;;;;;;-0.98;54.89;101062.94;125646;1099;104293;-71
2023/03/13 02:55:42;;;;;;;36.93;17.17;;;;;;;-0.96;55.69;101064.90;124434;1099;104290;-72
2023/03/13 02:58:14;;;;;;;39.03;17.40;;;;;;;-0.97;54.82;101057.03;124244;1099;104078;-71
2023/03/13 03:00:46;;;;;;;32.50;17.10;;;;;;;-0.99;55.44;101066.30;124567;1099;104312;-71
2023/03/13 03:03:18;;;;;;;36.17;17.13;;;;;;;-0.96;54.99;101074.31;124564;1099;103991;-71
2023/03/13 03:05:49;;;;;;;35.37;16.50;;;;;;;-0.95;55.06;101077.02;124535;1098;102656;-72
2023/03/13 03:08:20;;;;;;;32.83;16.30;;;;;;;-0.96;55.80;101070.05;124533;1099;104278;-71
2023/03/13 03:10:51;;;;;;;38.47;17.93;;;;;;;-0.94;55.80;101067.61;124534;1098;104271;-71
2023/03/13 03:13:25;;;;;;;37.93;16.80;;;;;;;-0.91;55.85;101073.05;125880;1098;102484;-71
2023/03/13 03:15:56;;;;;;;34.50;16.97;;;;;;;-0.93;55.57;101074.59;124585;1099;102487;-71
2023/03/13 03:18:27;;;;;;;37.63;18.37;;;;;;;-0.92;56.08;101074.73;124544;1099;104399;-75
2023/03/13 03:20:58;;;;;;;38.43;18.43;;;;;;;-0.91;55.31;101079.09;124548;1098;104236;-71
2023/03/13 03:23:30;;;;;;;39.33;18.10;;;;;;;-0.92;55.19;101084.10;124513;1099;104319;-71
2023/03/13 03:26:02;;;;;;;37.40;17.47;;;;;;;-0.95;55.79;101083.83;124573;1099;101958;-71
2023/03/13 03:28:35;;;;;;;37.80;18.05;;;;;;;-0.97;55.63;101086.27;124504;1099;104080;-71
2023/03/13 03:31:12;;;;;;;40.90;18.60;;;;;;;-0.97;55.46;101087.95;124497;1099;104304;-72
2023/03/13 03:33:42;;;;;;;;;;;;;;;-1.03;56.59;101082.23;124635;1099;104741;-71
2023/03/13 03:36:17;;;;;;;35.77;16.47;;;;;;;-0.96;55.74;101087.19;124615;1099;104169;-71
2023/03/13 03:38:49;;;;;;;38.90;17.90;;;;;;;-0.97;56.33;101082.80;124523;1099;104226;-71
2023/03/13 03:41:22;;;;;;;38.17;18.55;;;;;;;-0.97;55.24;101090.52;124565;1098;104241;-71
2023/03/13 03:43:54;;;;;;;36.23;18.37;;;;;;;-0.97;55.37;101080.22;124580;1099;103639;-71
2023/03/13 03:46:27;;;;;;;34.87;17.23;;;;;;;-0.98;56.33;101083.55;124485;1099;104229;-71
2023/03/13 03:48:59;;;;;;;37.57;17.50;;;;;;;-0.97;56.50;101080.22;124549;1099;104166;-71
2023/03/13 03:51:31;;;;;;;41.43;18.63;;;;;;;-0.96;55.57;101087.19;124535;1099;102479;-71
2023/03/13 03:54:02;;;;;;;37.93;18.63;;;;;;;-0.95;56.46;101088.98;124575;1099;102475;-71
2023/03/13 03:56:34;;;;;;;35.13;18.13;;;;;;;-0.95;55.71;101084.75;124568;1099;104191;-71
2023/03/13 03:59:06;;;;;;;34.77;15.93;;;;;;;-0.99;57.04;101090.38;124475;1099;104367;-71
2023/03/13 04:01:49;;;;;;;36.10;17.30;;;;;;;-1.06;56.87;101085.45;124915;1098;104242;-71
2023/03/13 04:04:25;;;;;;;41.60;16.97;;;;;;;-1.06;56.62;101087.10;124516;1099;104265;-71
2023/03/13 04:07:03;;;;;;;35.93;16.93;;;;;;;-1.05;55.75;101086.35;124563;1099;104301;-71
2023/03/13 04:09:35;;;;;;;37.90;17.37;;;;;;;-1.04;56.24;101082.98;124578;1099;104211;-71
2023/03/13 04:12:09;;;;;;;37.20;17.97;;;;;;;-1.02;56.41;101082.38;125337;1098;104226;-71
2023/03/13 04:14:45;;;;;;;41.20;18.53;;;;;;;-1.00;56.76;101079.94;124575;1099;104411;-70
2023/03/13 04:17:18;;;;;;;42.37;17.67;;;;;;;-0.99;57.47;101082.66;124561;1099;104355;-71
2023/03/13 04:19:50;;;;;;;39.83;18.77;;;;;;;-1.00;56.19;101080.83;124167;1099;104374;-71
2023/03/13 04:22:22;;;;;;;36.37;17.43;;;;;;;-0.98;56.65;101086.12;124565;1099;104252;-71
2023/03/13 04:24:57;;;;;;;37.47;17.87;;;;;;;-0.97;56.75;101090.52;124520;1099;103659;-71
2023/03/13 04:27:28;;;;;;;40.30;19.53;;;;;;;-0.96;57.22;101089.77;125296;1098;104070;-72
2023/03/13 04:30:00;;;;;;;40.43;19.33;;;;;;;-0.94;58.10;101090.80;124575;1099;104248;-71
2023/03/13 04:32:41;;;;;;;37.33;17.70;;;;;;;-0.93;57.48;101087.47;124539;1099;104201;-71
2023/03/13 04:35:38;;;;;;;37.60;18.43;;;;;;;-0.90;57.97;101103.20;124572;1099;104623;-71
2023/03/13 04:38:19;;;;;;;39.80;19.83;;;;;;;-0.86;57.48;101104.38;124523;1099;104283;-71
2023/03/13 04:41:19;;;;;;;42.23;20.90;;;;;;;-0.80;57.29;101100.67;124069;1102;104472;-71
2023/03/13 04:44:09;;;;;;;46.63;21.00;;;;;;;-0.77;57.63;101100.95;124538;1099;102128;-71
2023/03/13 04:46:49;;;;;;;53.87;22.70;;;;;;;-0.71;58.27;101102.30;124278;1099;104268;-70
2023/03/13 04:49:43;;;;;;;49.05;23.18;;;;;;;-0.67;57.29;101107.87;124565;1099;104211;-71
2023/03/13 04:52:40;;;;;;;51.63;25.03;;;;;;;-0.59;58.02;101113.72;124548;1099;104195;-71
2023/03/13 04:55:12;;;;;;;50.83;23.47;;;;;;;-0.53;58.26;101111.69;124603;1099;104235;-71
2023/03/13 04:57:43;;;;;;;49.40;23.77;;;;;;;-0.48;58.53;101115.58;124943;1098;102439;-71
2023/03/13 05:00:39;;;;;;;52.15;26.42;;;;;;;-0.41;58.51;101115.33;124584;1099;104248;-71
2023/03/13 05:03:29;;;;;;;51.40;25.67;;;;;;;-0.32;58.13;101122.10;124587;1099;104169;-71
2023/03/13 05:06:11;;;;;;;50.50;26.00;;;;;;;-0.25;58.95;101119.28;124465;1099;104293;-71
2023/03/13 05:08:42;;;;;;;54.13;26.27;;;;;;;-0.19;58.32;101115.59;124595;1099;104252;-71
2023/03/13 05:11:29;;;;;;;59.83;27.97;;;;;;;-0.12;58.61;101114.45;124560;1099;102585;-71
2023/03/13 05:14:13;;;;;;;60.17;30.43;;;;;;;-0.05;57.94;101123.62;124575;1098;104370;-71
2023/03/13 05:16:45;;;;;;;52.33;27.43;;;;;;;0.01;58.79;101131.91;124576;1099;104248;-71
2023/03/13 05:19:54;;;;;;;53.85;27.80;;;;;;;0.10;58.45;101130.12;124503;1099;107933;-72
2023/03/13 05:22:40;;;;;;;56.70;29.07;;;;;;;0.22;58.63;101150.03;124577;1099;104172;-70
2023/03/13 05:25:50;;;;;;;61.13;30.03;;;;;;;0.34;58.43;101145.94;124023;1102;104341;-71
2023/03/13 05:28:47;;;;;;;59.07;31.20;;;;;;;0.49;58.86;101142.09;124029;1102;104393;-71
2023/03/13 05:31:34;;;;;;;60.83;31.50;;;;;;;0.60;58.63;101148.19;124394;1099;104296;-72
2023/03/13 05:34:32;;;;;;;61.87;32.80;;;;;;;0.73;58.62;101146.66;124373;1099;104213;-72
2023/03/13 05:37:16;;;;;;;63.27;31.73;;;;;;;0.87;58.87;101143.55;124566;1099;103814;-73
2023/03/13 05:40:26;;;;;;;65.10;33.43;;;;;;;1.02;58.71;101155.19;124042;1102;113133;-73
2023/03/13 05:43:17;;;;;;;63.13;32.77;;;;;;;1.19;58.67;101156.61;123927;1102;102034;-72
2023/03/13 05:46:11;;;;;;;54.18;28.47;;;;;;;1.34;59.20;101154.41;124395;1099;104322;-73
2023/03/13 05:49:02;;;;;;;62.60;31.50;;;;;;;1.48;58.96;101152.97;124094;1099;104242;-71
2023/03/13 05:52:12;;;;;;;64.87;32.60;;;;;;;1.59;58.47;101149.56;124035;1102;104474;-71
2023/03/13 05:54:46;;;;;;;58.07;31.23;;;;;;;1.70;59.05;101152.11;124051;1102;104487;-73
2023/03/13 05:57:29;;;;;;;67.00;33.03;;;;;;;1.77;58.67;101147.55;125108;1098;104430;-70
2023/03/13 06:00:25;;;;;;;62.37;32.10;;;;;;;1.91;59.08;101137.43;124484;1099;104281;-71
2023/03/13 06:03:06;;;;;;;64.50;32.77;;;;;;;2.05;58.85;101147.20;124141;1099;104310;-72
2023/03/13 06:05:41;;;;;;;59.47;32.10;;;;;;;2.22;59.04;101147.66;124543;1099;104190;-72
2023/03/13 06:08:24;;;;;;;62.47;31.27;;;;;;;2.41;58.92;101144.82;124159;1099;104229;-71
2023/03/13 06:10:55;;;;;;;60.30;30.80;;;;;;;2.62;59.02;101143.02;124176;1102;104201;-72
2023/03/13 06:13:26;;;;;;;58.50;28.80;;;;;;;2.77;58.24;101148.47;124157;1102;104227;-72
2023/03/13 06:16:00;;;;;;;52.63;27.77;;;;;;;2.96;58.50;101145.59;124114;1102;104281;-71
2023/03/13 06:18:50;;;;;;;54.20;27.80;;;;;;;3.18;58.31;101146.45;124582;1099;101906;-70
2023/03/13 06:21:21;;;;;;;52.83;27.23;;;;;;;3.38;58.65;101147.03;124528;1099;104338;-70
2023/03/13 06:23:54;;;;;;;54.60;26.87;;;;;;;3.60;58.50;101146.95;124535;1099;102514;-70
2023/03/13 06:26:25;;;;;;;50.67;26.37;;;;;;;3.71;57.96;101137.33;124548;1099;104236;-71
2023/03/13 06:28:56;;;;;;;51.77;25.50;;;;;;;3.84;57.32;101147.84;124546;1099;104300;-73
2023/03/13 06:31:28;;;;;;;47.57;24.10;;;;;;;3.98;57.74;101146.25;124295;1099;103547;-70
2023/03/13 06:34:00;;;;;;;42.90;22.20;;;;;;;4.10;57.01;101146.24;124525;1099;104181;-71
2023/03/13 06:36:31;;;;;;;46.70;22.50;;;;;;;4.20;57.29;101148.69;124613;1099;104224;-72
2023/03/13 06:39:03;;;;;;;41.97;21.87;;;;;;;4.29;57.68;101146.75;124573;1099;102035;-71
2023/03/13 06:41:34;;;;;;;38.53;20.60;;;;;;;4.36;57.37;101144.59;124541;1099;104102;-72
2023/03/13 06:44:06;;;;;;;39.37;20.50;;;;;;;4.38;56.90;101146.52;124592;1099;104246;-70
2023/03/13 06:46:37;;;;;;;36.93;20.20;;;;;;;4.38;56.80;101140.39;124607;1099;102587;-70
2023/03/13 06:49:08;;;;;;;40.27;20.10;;;;;;;4.42;56.69;101147.62;124602;1099;101884;-70
2023/03/13 06:51:40;;;;;;;37.23;19.47;;;;;;;4.49;56.57;101144.67;124552;1099;104326;-73
2023/03/13 06:54:12;;;;;;;44.30;20.45;;;;;;;4.45;55.96;101148.73;124543;1098;104322;-72
2023/03/13 06:56:44;;;;;;;42.23;21.10;;;;;;;4.51;56.30;101145.67;124536;1099;104252;-73
2023/03/13 06:59:17;;;;;;;36.85;18.67;;;;;;;4.61;55.98;101142.94;124542;1099;104699;-71
2023/03/13 07:01:48;;;;;;;37.53;18.23;;;;;;;4.72;56.37;101145.36;124574;1099;104290;-73
2023/03/13 07:04:20;;;;;;;34.23;17.30;;;;;;;4.81;55.80;101139.09;124147;1099;104236;-72
2023/03/13 07:06:52;;;;;;;30.87;16.00;;;;;;;4.97;56.17;101135.86;124574;1099;101970;-74
2023/03/13 07:09:28;;;;;;;36.77;16.52;;;;;;;5.11;55.84;101133.28;124653;1099;104172;-72
2023/03/13 07:12:02;;;;;;;22.80;10.80;;;;;;;5.31;56.03;101127.70;124278;1099;104245;-73
2023/03/13 07:14:33;;;;;;;20.30;8.30;;;;;;;5.55;55.90;101131.05;124197;1098;104162;-72
2023/03/13 07:17:04;;;;;;;21.97;7.33;;;;;;;5.76;56.13;101131.58;124617;1099;104185;-74
2023/03/13 07:19:39;;;;;;;20.07;7.93;;;;;;;5.89;52.75;101120.23;124663;1099;102851;-74
2023/03/13 07:22:10;;;;;;;16.43;6.70;;;;;;;5.97;53.50;101118.16;124228;1099;104321;-72
2023/03/13 07:24:44;;;;;;;17.37;6.57;;;;;;;6.08;54.28;101100.61;124276;1099;104239;-73
2023/03/13 07:27:19;;;;;;;17.55;6.28;;;;;;;6.23;53.51;101103.26;124263;1099;101823;-72
2023/03/13 07:29:52;;;;;;;20.03;7.33;;;;;;;6.29;53.87;101107.17;124220;1099;101991;-75
2023/03/13 07:32:24;;;;;;;15.30;6.07;;;;;;;6.46;54.33;101107.30;125657;1099;103659;-73
2023/03/13 07:34:55;;;;;;;15.37;6.40;;;;;;;6.70;53.76;101096.57;124618;1099;104204;-73
2023/03/13 07:37:27;;;;;;;13.77;5.70;;;;;;;6.91;53.56;101102.20;124554;1098;104320;-73
2023/03/13 07:39:58;;;;;;;12.63;5.27;;;;;;;7.05;53.31;101098.69;124200;1099;102411;-74
2023/03/13 07:42:29;;;;;;;10.33;4.23;;;;;;;7.17;51.97;101106.36;124588;1099;103752;-73
2023/03/13 07:45:01;;;;;;;11.20;4.37;;;;;;;7.23;50.67;101092.75;124174;1099;101895;-74
2023/03/13 07:47:33;;;;;;;8.53;3.87;;;;;;;7.30;51.45;101092.31;124579;1099;104236;-73
2023/03/13 07:50:06;;;;;;;12.03;4.30;;;;;;;7.42;50.79;101093.02;124614;1099;104204;-73
2023/03/13 07:52:37;;;;;;;8.43;4.30;;;;;;;7.52;49.67;101092.72;124597;1099;104191;-72
2023/03/13 07:55:12;;;;;;;10.77;4.17;;;;;;;7.54;50.35;101096.34;124576;1099;104359;-73
2023/03/13 07:57:44;;;;;;;11.33;4.10;;;;;;;7.57;50.15;101090.38;124572;1099;102083;-74
2023/03/13 08:00:18;;;;;;;7.83;3.80;;;;;;;7.62;50.02;101085.42;124594;1099;104320;-74
2023/03/13 08:02:50;;;;;;;8.73;3.73;;;;;;;7.69;49.10;101084.97;124667;1099;104293;-76
2023/03/13 08:05:21;;;;;;;13.27;4.40;;;;;;;7.83;48.80;101085.74;124578;1099;104229;-73
2023/03/13 08:07:53;;;;;;;12.63;4.43;;;;;;;8.01;49.33;101075.39;124697;1099;102773;-72
2023/03/13 08:10:24;;;;;;;13.00;4.63;;;;;;;8.15;48.79;101079.69;124601;1099;104290;-73
2023/03/13 08:12:57;;;;;;;8.60;3.80;;;;;;;8.26;47.46;101075.05;124706;1098;104124;-74
2023/03/13 08:15:30;;;;;;;11.87;4.13;;;;;;;8.41;48.49;101078.50;124205;1099;104328;-76
2023/03/13 08:18:04;;;;;;;8.85;4.30;;;;;;;8.58;48.36;101079.39;124623;1099;104316;-74
2023/03/13 08:20:43;;;;;;;9.07;4.20;;;;;;;8.68;47.28;101070.34;124606;1099;104304;-75
2023/03/13 08:23:14;;;;;;;12.47;4.40;;;;;;;8.63;46.04;101067.48;124701;1099;104291;-73
2023/03/13 08:25:47;;;;;;;15.30;4.47;;;;;;;8.69;47.83;101074.73;124580;1098;104181;-72
2023/03/13 08:28:18;;;;;;;11.00;4.27;;;;;;;8.71;45.91;101073.12;124628;1099;101871;-73
2023/03/13 08:30:50;;;;;;;11.33;4.23;;;;;;;8.64;45.80;101069.25;124578;1098;104632;-71
2023/03/13 08:33:26;;;;;;;10.30;4.40;;;;;;;8.49;45.28;101065.83;124555;1099;104173;-75
2023/03/13 08:35:58;;;;;;;9.67;4.37;;;;;;;8.34;45.91;101059.78;124551;1099;104238;-71
2023/03/13 08:38:31;;;;;;;11.57;4.33;;;;;;;8.28;45.78;101058.61;124571;1099;102334;-71
2023/03/13 08:41:17;;;;;;;8.57;3.80;;;;;;;8.34;45.82;101051.94;124675;1099;104229;-74
2023/03/13 08:43:51;;;;;;;8.00;3.25;;;;;;;8.51;45.42;101056.37;124660;1099;104310;-73
2023/03/13 08:46:31;;;;;;;8.03;3.40;;;;;;;8.68;41.50;101058.95;124608;1099;104396;-75
2023/03/13 08:49:06;;;;;;;8.20;3.20;;;;;;;8.88;43.19;101052.14;124818;1099;104351;-73
2023/03/13 08:51:39;;;;;;;8.20;3.20;;;;;;;9.14;42.61;101059.59;124708;1098;104253;-76
2023/03/13 08:54:11;;;;;;;12.03;3.80;;;;;;;9.42;42.42;101052.22;124571;1099;102080;-74
2023/03/13 08:56:43;;;;;;;10.43;3.50;;;;;;;9.68;42.93;101045.63;124617;1099;104669;-75
2023/03/13 08:59:18;;;;;;;10.47;3.47;;;;;;;9.91;40.82;101038.87;124680;1099;104347;-73
2023/03/13 09:01:49;;;;;;;5.30;3.43;;;;;;;10.11;42.66;101038.88;124601;1099;102521;-73
2023/03/13 09:04:23;;;;;;;7.60;3.57;;;;;;;10.21;41.34;101054.22;124614;1099;104201;-74
2023/03/13 09:07:08;;;;;;;8.07;3.37;;;;;;;10.22;39.49;101050.75;124628;1099;104175;-74
2023/03/13 09:09:40;;;;;;;6.33;3.20;;;;;;;10.21;37.98;101048.98;124534;1099;104268;-76
2023/03/13 09:12:13;;;;;;;6.67;3.30;;;;;;;10.14;40.76;101052.12;124714;1099;104788;-75
2023/03/13 09:14:49;;;;;;;7.60;3.50;;;;;;;10.04;40.75;101049.08;124704;1099;104359;-74
2023/03/13 09:17:28;;;;;;;6.33;3.43;;;;;;;10.04;41.06;101048.20;124673;1099;104235;-78
2023/03/13 09:20:05;;;;;;;7.43;3.57;;;;;;;10.00;40.39;101047.16;124662;1099;104241;-74
2023/03/13 09:22:36;;;;;;;10.27;3.57;;;;;;;10.07;40.37;101040.47;124610;1099;104341;-73
2023/03/13 09:25:11;;;;;;;12.57;4.03;;;;;;;10.14;39.64;101044.27;124646;1099;104256;-74
2023/03/13 09:27:42;;;;;;;5.23;3.03;;;;;;;10.18;37.04;101035.72;124486;1099;104201;-73
2023/03/13 09:30:15;;;;;;;9.97;4.33;;;;;;;10.19;40.27;101024.38;124572;1099;104121;-72
2023/03/13 09:32:47;;;;;;;7.27;3.50;;;;;;;10.07;38.88;101027.36;124606;1099;104283;-75
2023/03/13 09:35:19;;;;;;;8.90;4.07;;;;;;;9.93;38.24;101010.10;124624;1099;104233;-75
2023/03/13 09:37:55;;;;;;;8.10;3.90;;;;;;;9.90;38.94;101027.46;124711;1099;104258;-76
2023/03/13 09:40:28;;;;;;;7.77;3.70;;;;;;;9.89;37.98;101020.45;124594;1099;104238;-75
2023/03/13 09:43:02;;;;;;;6.78;3.45;;;;;;;9.97;38.77;101004.16;124763;1099;102519;-73
2023/03/13 09:45:36;;;;;;;8.08;3.50;;;;;;;10.08;39.19;101001.21;124565;1099;102678;-72
2023/03/13 09:48:11;;;;;;;;;;;;;;;10.20;36.17;100992.09;124584;1099;104204;-74
2023/03/13 09:50:44;;;;;;;;;;;;;;;10.33;37.20;100996.19;124668;1098;104159;-74
2023/03/13 09:53:40;;;;;;;6.23;3.03;;;;;;;10.39;38.99;100978.09;124589;1099;104235;-73
2023/03/13 09:56:20;;;;;;;9.80;3.97;;;;;;;10.39;38.45;100994.77;124650;1099;104360;-75
2023/03/13 09:58:57;;;;;;;6.97;3.30;;;;;;;10.45;38.82;100986.23;124615;1099;104223;-76
2023/03/13 10:01:31;;;;;;;9.73;3.30;;;;;;;10.50;37.81;100981.20;124656;1099;104301;-75
2023/03/13 10:04:21;;;;;;;6.83;3.33;;;;;;;10.61;36.56;100972.05;124618;1099;104864;-75
2023/03/13 10:06:53;;;;;;;5.23;3.10;;;;;;;10.70;35.06;100958.44;124569;1099;104364;-74
2023/03/13 10:09:29;;;;;;;9.93;4.03;;;;;;;10.83;37.36;100979.14;124707;1099;102839;-77
2023/03/13 10:12:08;;;;;;;5.80;3.10;;;;;;;10.89;36.74;100975.85;124676;1099;104208;-73
2023/03/13 10:14:46;;;;;;;6.93;3.40;;;;;;;10.93;37.54;100978.67;124580;1099;104277;-73
2023/03/13 10:17:30;;;;;;;9.60;3.53;;;;;;;11.00;37.34;100982.48;124610;1099;117705;-75
2023/03/13 10:20:10;;;;;;;6.70;3.53;;;;;;;11.02;37.21;100986.05;124670;1099;104232;-74
2023/03/13 10:22:44;;;;;;;6.60;3.43;;;;;;;11.09;37.09;100972.31;124641;1099;104191;-72
2023/03/13 10:25:33;;;;;;;4.65;3.00;;;;;;;11.12;36.53;100974.19;124575;1099;104227;-75
2023/03/13 10:28:05;;;;;;;6.87;3.00;;;;;;;11.05;34.92;100966.91;124667;1099;102825;-73
2023/03/13 10:30:38;;;;;;;6.03;2.73;;;;;;;10.88;36.55;100951.34;124577;1098;104238;-76
2023/03/13 10:33:26;;;;;;;6.87;3.30;;;;;;;10.94;35.64;100959.47;124602;1099;101965;-74
2023/03/13 10:36:10;;;;;;;8.67;3.50;;;;;;;10.88;36.29;100958.33;124658;1099;102158;-72
2023/03/13 10:38:59;;;;;;;5.57;3.40;;;;;;;10.71;36.33;100958.50;124657;1099;104179;-73
2023/03/13 10:41:35;;;;;;;5.97;3.53;;;;;;;10.56;35.15;100952.59;124665;1099;104166;-74
2023/03/13 10:44:20;;;;;;;6.70;3.00;;;;;;;10.40;35.31;100951.05;124649;1099;104163;-74
2023/03/13 10:46:53;;;;;;;6.77;3.10;;;;;;;10.38;35.39;100943.11;124614;1099;104239;-74
2023/03/13 10:49:27;;;;;;;7.97;3.00;;;;;;;10.45;33.90;100944.27;124263;1099;104328;-73
2023/03/13 10:52:00;;;;;;;5.07;3.00;;;;;;;10.58;35.32;100925.61;125154;1098;104166;-76
2023/03/13 10:54:36;;;;;;;4.28;3.00;;;;;;;10.65;34.58;100928.48;124725;1099;104166;-73
2023/03/13 10:57:35;;;;;;;5.67;3.07;;;;;;;10.74;33.53;100932.39;124636;1099;104271;-75
2023/03/13 11:00:34;;;;;;;7.97;3.37;;;;;;;10.89;35.34;100920.72;124873;1099;104233;-75
2023/03/13 11:03:18;;;;;;;5.93;3.23;;;;;;;10.93;35.61;100927.91;124746;1099;104205;-71
2023/03/13 11:06:03;;;;;;;6.97;3.20;;;;;;;10.96;34.97;100909.65;124598;1099;101954;-74
2023/03/13 11:08:45;;;;;;;7.83;3.40;;;;;;;10.99;34.75;100914.14;124596;1099;102031;-73
2023/03/13 11:11:22;;;;;;;5.93;2.90;;;;;;;11.03;34.80;100911.70;124626;1098;104248;-74
2023/03/13 11:13:53;;;;;;;6.70;3.10;;;;;;;11.06;33.84;100900.40;124540;1099;104278;-72
2023/03/13 11:16:28;;;;;;;8.10;3.73;;;;;;;11.07;34.33;100900.47;124571;1099;104399;-73
2023/03/13 11:19:19;;;;;;;5.25;3.10;;;;;;;11.05;34.85;100890.75;124653;1099;110939;-73
2023/03/13 11:22:06;;;;;;;6.17;3.10;;;;;;;11.08;35.12;100891.76;124650;1099;104254;-74
2023/03/13 11:24:46;;;;;;;5.80;3.15;;;;;;;11.15;35.08;100893.77;124617;1099;104314;-71
2023/03/13 11:27:27;;;;;;;8.00;3.10;;;;;;;11.22;33.88;100899.27;124503;1099;104079;-72
2023/03/13 11:30:11;;;;;;;6.33;3.07;;;;;;;11.24;32.93;100895.00;124671;1098;104188;-72
2023/03/13 11:32:48;;;;;;;6.90;3.47;;;;;;;11.22;34.78;100879.17;124549;1099;104267;-72
2023/03/13 11:35:35;;;;;;;8.97;3.60;;;;;;;11.21;34.00;100874.75;124606;1099;104249;-72
2023/03/13 11:38:19;;;;;;;6.63;3.33;;;;;;;11.23;34.63;100866.92;124665;1099;104310;-74
2023/03/13 11:41:04;;;;;;;8.47;3.47;;;;;;;11.23;34.09;100869.55;124646;1099;106968;-73
2023/03/13 11:43:56;;;;;;;5.87;3.47;;;;;;;11.25;33.41;100876.67;124255;1099;104206;-72